Time;durP1;ratioP1;P1;durP2;ratioP2;P2;SDS_P1;SDS_P2;PMS_P1;PMS_P2;Temp;Humidity;BMP_temperature;BMP_pressure;BME280_temperature;BME280_humidity;BME280_pressure;Samples;Min_cycle;Max_cycle;Signal;HPM_P1;HPM_P2
2024/04/13 00:03:35;;;;;;;1999.90;999.90;;;;;;;15.15;98.40;102584.44;11283640;26;20011;-66
2024/04/13 00:08:40;;;;;;;1999.90;999.90;;;;;;;15.04;98.90;102586.72;11283764;26;19995;-66
2024/04/13 00:13:42;;;;;;;1999.90;999.90;;;;;;;15.07;98.17;102583.94;11283659;26;20014;-66
2024/04/13 00:18:46;;;;;;;1999.90;999.90;;;;;;;15.10;98.35;102578.53;11283340;26;20470;-66
2024/04/13 00:23:48;;;;;;;1999.90;999.90;;;;;;;15.16;98.48;102586.16;11282905;26;20014;-66
2024/04/13 00:28:53;;;;;;;1999.90;999.90;;;;;;;15.19;97.97;102585.97;11281409;26;19999;-66
2024/04/13 00:33:56;;;;;;;1999.90;999.90;;;;;;;15.19;97.99;102571.94;11283059;26;20003;-66
2024/04/13 00:38:59;;;;;;;1999.90;999.90;;;;;;;15.19;99.49;102564.88;11280544;26;20009;-66
2024/04/13 00:44:02;;;;;;;1999.90;999.90;;;;;;;15.16;98.55;102553.63;11282637;26;20473;-66
2024/04/13 00:49:13;;;;;;;1999.90;999.90;;;;;;;15.16;98.11;102554.50;11287884;26;20011;-66
2024/04/13 00:54:18;;;;;;;1999.90;999.90;;;;;;;15.31;95.86;102555.50;11289822;26;20046;-66
2024/04/13 00:59:22;;;;;;;1999.90;999.90;;;;;;;15.29;95.83;102541.53;11289195;26;20007;-66
2024/04/13 01:04:26;;;;;;;1999.90;999.90;;;;;;;14.89;99.28;102537.34;11287819;26;20012;-66
2024/04/13 01:09:29;;;;;;;1999.90;999.90;;;;;;;15.11;96.52;102530.09;11289270;26;19999;-66
2024/04/13 01:14:31;;;;;;;1999.90;999.90;;;;;;;15.20;97.23;102532.28;11289283;26;20030;-66
2024/04/13 01:19:34;;;;;;;1999.90;999.90;;;;;;;14.97;97.10;102524.66;11287407;26;20014;-66
2024/04/13 01:24:40;;;;;;;1999.90;999.90;;;;;;;14.99;97.91;102525.44;11288943;26;20010;-66
2024/04/13 01:29:43;;;;;;;1999.90;999.90;;;;;;;14.78;99.06;102519.41;11288959;26;19999;-66
2024/04/13 01:34:46;;;;;;;1999.90;999.90;;;;;;;14.83;99.50;102512.16;11286783;26;20007;-66
2024/04/13 01:39:48;;;;;;;1999.90;999.90;;;;;;;14.81;98.61;102511.34;11288191;26;19999;-66
2024/04/13 01:44:51;;;;;;;1999.90;999.90;;;;;;;14.71;100.00;102516.22;11286650;26;20000;-66
2024/04/13 01:49:54;;;;;;;1999.90;999.90;;;;;;;14.88;99.65;102506.63;11286218;26;19999;-66
2024/04/13 01:54:56;;;;;;;1999.90;999.90;;;;;;;14.74;100.00;102509.94;11286327;26;20009;-66
2024/04/13 01:59:59;;;;;;;1999.90;999.90;;;;;;;14.77;100.00;102508.00;11286792;26;20014;-66
2024/04/13 02:05:02;;;;;;;1999.90;999.90;;;;;;;14.59;100.00;102507.13;11286356;26;20450;-66
2024/04/13 02:10:06;;;;;;;1999.90;999.90;;;;;;;14.41;100.00;102495.59;11285860;26;19999;-66
2024/04/13 02:15:08;;;;;;;1999.90;999.90;;;;;;;14.35;100.00;102498.53;11256122;26;20031;-66
2024/04/13 02:20:15;;;;;;;1999.90;999.90;;;;;;;14.46;100.00;102498.88;11285319;26;19998;-66
2024/04/13 02:25:18;;;;;;;1999.90;999.90;;;;;;;14.40;100.00;102503.59;11286973;26;19998;-66
2024/04/13 02:30:20;;;;;;;1999.90;999.90;;;;;;;14.15;100.00;102501.22;11255247;26;19998;-66
2024/04/13 02:35:23;;;;;;;1999.90;999.90;;;;;;;14.38;100.00;102494.91;11255150;26;20038;-66
2024/04/13 02:40:27;;;;;;;1999.90;999.90;;;;;;;14.49;100.00;102504.00;11286300;26;20007;-66
2024/04/13 02:45:29;;;;;;;1999.90;999.90;;;;;;;14.57;100.00;102506.28;11285127;26;20003;-66
2024/04/13 02:50:32;;;;;;;1999.90;999.90;;;;;;;14.42;100.00;102499.09;11284638;26;20010;-66
2024/04/13 02:55:34;;;;;;;1999.90;999.90;;;;;;;14.50;100.00;102504.88;11284640;26;20457;-66
2024/04/13 03:00:37;;;;;;;1999.90;999.90;;;;;;;14.43;100.00;102508.72;11285933;26;19999;-66
2024/04/13 03:05:39;;;;;;;1999.90;999.90;;;;;;;14.35;100.00;102508.22;11285918;26;20330;-66
2024/04/13 03:10:44;;;;;;;1999.90;999.90;;;;;;;14.04;100.00;102509.63;11283986;26;19999;-66
2024/04/13 03:16:03;;;;;;;1999.90;999.90;;;;;;;14.08;100.00;102513.81;11283917;26;20003;-66
2024/04/13 03:21:09;;;;;;;1999.90;999.90;;;;;;;13.82;100.00;102520.22;11283614;26;20007;-66
2024/04/13 03:26:11;;;;;;;1999.90;999.90;;;;;;;14.04;100.00;102507.00;11283735;26;20003;-66
2024/04/13 03:31:14;;;;;;;1999.90;999.90;;;;;;;13.96;100.00;102509.94;11283443;26;20040;-66
2024/04/13 03:36:16;;;;;;;1999.90;999.90;;;;;;;14.07;100.00;102512.97;11283165;26;20454;-66
2024/04/13 03:41:19;;;;;;;1999.90;999.90;;;;;;;13.72;100.00;102504.84;11282991;26;20006;-66
2024/04/13 03:46:21;;;;;;;1999.90;999.90;;;;;;;13.84;100.00;102503.44;11282473;26;19998;-66
2024/04/13 03:51:24;;;;;;;1999.90;999.90;;;;;;;13.97;100.00;102510.78;11252970;26;19999;-66
2024/04/13 03:56:26;;;;;;;1999.90;999.90;;;;;;;13.91;100.00;102504.03;11282731;26;20341;-66
2024/04/13 04:01:29;;;;;;;1999.90;999.90;;;;;;;14.05;100.00;102500.78;11283952;26;19999;-66
2024/04/13 04:06:31;;;;;;;1999.90;999.90;;;;;;;13.86;100.00;102500.75;11284188;26;19999;-66
2024/04/13 04:11:38;;;;;;;1999.90;999.90;;;;;;;13.94;100.00;102496.84;11283788;26;20040;-66
2024/04/13 04:16:41;;;;;;;1999.90;999.90;;;;;;;13.71;100.00;102499.63;11281713;26;19999;-66
2024/04/13 04:21:43;;;;;;;1999.90;999.90;;;;;;;13.34;100.00;102496.78;11285453;26;19998;-66
2024/04/13 04:26:46;;;;;;;1999.90;999.90;;;;;;;13.14;100.00;102505.47;11290621;26;20007;-66
2024/04/13 04:31:48;;;;;;;1999.90;999.90;;;;;;;13.78;100.00;102495.81;11288853;26;20039;-67
2024/04/13 04:36:54;;;;;;;1999.90;999.90;;;;;;;13.70;100.00;102495.28;11288732;26;19999;-66
2024/04/13 04:41:57;;;;;;;1999.90;999.90;;;;;;;13.89;100.00;102490.09;11259465;26;19999;-66
2024/04/13 04:46:59;;;;;;;1999.90;999.90;;;;;;;13.97;100.00;102495.88;11258685;26;19999;-67
2024/04/13 04:52:02;;;;;;;1999.90;999.90;;;;;;;13.94;100.00;102494.22;11288299;26;20009;-66
2024/04/13 04:57:05;;;;;;;1999.90;999.90;;;;;;;13.61;100.00;102486.03;11367904;21;20014;-65
2024/04/13 05:02:08;;;;;;;1999.90;999.90;;;;;;;13.95;100.00;102492.44;11365276;26;20072;-65
2024/04/13 05:07:10;;;;;;;1999.90;999.90;;;;;;;13.94;100.00;102493.38;11332998;26;20013;-65
2024/04/13 05:12:13;;;;;;;1999.90;999.90;;;;;;;14.18;100.00;102491.41;11363007;26;20009;-65
2024/04/13 05:17:15;;;;;;;1999.90;999.90;;;;;;;13.92;100.00;102492.59;11364709;26;20014;-65
2024/04/13 05:22:17;;;;;;;1999.90;999.90;;;;;;;14.04;100.00;102478.88;11332303;26;20049;-65
2024/04/13 05:27:22;;;;;;;1999.90;999.90;;;;;;;14.12;100.00;102481.13;11363211;26;19994;-65
2024/04/13 05:32:24;;;;;;;1999.90;999.90;;;;;;;14.12;100.00;102482.00;11360730;26;20010;-65
2024/04/13 05:37:27;;;;;;;1999.90;999.90;;;;;;;14.33;100.00;102483.72;11363942;26;19994;-65
2024/04/13 05:42:29;;;;;;;1999.90;999.90;;;;;;;14.16;100.00;102484.50;11363612;26;19998;-65
2024/04/13 05:47:35;;;;;;;1999.90;999.90;;;;;;;14.41;100.00;102500.03;11363576;26;20071;-65
2024/04/13 05:52:38;;;;;;;1999.90;999.90;;;;;;;14.41;100.00;102490.34;11363418;26;19998;-65
2024/04/13 05:57:41;;;;;;;1999.90;999.90;;;;;;;14.67;100.00;102490.91;11361845;26;19998;-65
2024/04/13 06:02:43;;;;;;;1999.90;999.90;;;;;;;14.79;100.00;102494.75;11363299;26;19998;-65
2024/04/13 06:07:46;;;;;;;1999.90;999.90;;;;;;;14.64;100.00;102498.97;11362979;26;20070;-65
2024/04/13 06:12:48;;;;;;;1999.90;999.90;;;;;;;14.71;100.00;102489.84;11362979;26;19997;-65
2024/04/13 06:17:51;;;;;;;1999.90;999.90;;;;;;;14.91;100.00;102491.53;11362594;26;20009;-65
2024/04/13 06:22:53;;;;;;;1999.90;999.90;;;;;;;15.12;100.00;102481.69;11362508;26;20086;-65
2024/04/13 06:27:56;;;;;;;1999.90;999.90;;;;;;;15.13;100.00;102487.81;11362549;26;19994;-65
2024/04/13 06:32:58;;;;;;;1999.90;999.90;;;;;;;15.38;100.00;102484.78;11362063;26;19998;-65
2024/04/13 06:38:03;;;;;;;1999.90;999.90;;;;;;;15.24;100.00;102485.50;11362301;26;20002;-65
2024/04/13 06:43:05;;;;;;;1999.90;999.90;;;;;;;15.27;100.00;102482.72;11360548;26;20006;-65
2024/04/13 06:48:08;;;;;;;1999.90;999.90;;;;;;;15.53;100.00;102485.78;11361568;26;19999;-65
2024/04/13 06:53:10;;;;;;;1999.90;999.90;;;;;;;15.92;100.00;102477.63;11361907;26;20034;-65
2024/04/13 06:58:13;;;;;;;1999.90;999.90;;;;;;;15.95;100.00;102472.19;11361829;26;20030;-65
2024/04/13 07:03:15;;;;;;;1999.90;999.90;;;;;;;15.95;100.00;102464.25;11361462;26;19998;-65
2024/04/13 07:08:18;;;;;;;1999.90;999.90;;;;;;;16.38;97.87;102455.75;11361162;26;20020;-65
2024/04/13 07:13:21;;;;;;;1999.90;999.90;;;;;;;16.23;98.50;102459.25;11360146;26;20002;-65
2024/04/13 07:18:24;;;;;;;1999.90;999.90;;;;;;;16.77;94.05;102448.31;11359262;26;20046;-65
2024/04/13 07:23:26;;;;;;;1999.90;999.90;;;;;;;16.95;96.18;102446.44;11360614;26;19999;-65
2024/04/13 07:28:30;;;;;;;1999.90;999.90;;;;;;;17.55;89.29;102440.19;11360560;26;19998;-65
2024/04/13 07:33:33;;;;;;;1999.90;999.90;;;;;;;17.77;87.11;102432.66;11360859;26;20008;-65
2024/04/13 07:38:35;;;;;;;1999.90;999.90;;;;;;;17.67;86.60;102422.69;11360230;26;19998;-64
2024/04/13 07:43:38;;;;;;;1999.90;999.90;;;;;;;18.23;83.69;102423.63;11359841;26;20006;-64
2024/04/13 07:48:40;;;;;;;1999.90;999.90;;;;;;;18.26;82.01;102419.94;11359680;26;20361;-64
2024/04/13 07:53:43;;;;;;;1999.90;999.90;;;;;;;18.07;82.04;102409.63;11359756;26;19998;-64
2024/04/13 07:58:45;;;;;;;1999.90;999.90;;;;;;;18.31;82.48;102423.97;11358433;26;20538;-64
2024/04/13 08:03:48;;;;;;;1999.90;999.90;;;;;;;18.71;79.13;102421.38;11359561;26;20006;-64
2024/04/13 08:08:51;;;;;;;1999.90;999.90;;;;;;;19.05;79.18;102418.31;11359111;26;20013;-64
2024/04/13 08:13:54;;;;;;;1999.90;999.90;;;;;;;19.36;78.34;102409.06;11358924;26;20029;-64
2024/04/13 08:18:56;;;;;;;1999.90;999.90;;;;;;;18.97;78.88;102386.97;11358903;26;19998;-64
2024/04/13 08:23:59;;;;;;;1999.90;999.90;;;;;;;18.84;78.36;102400.19;11358809;26;20336;-64
2024/04/13 08:29:01;;;;;;;1999.90;999.90;;;;;;;19.68;76.10;102408.63;11356633;26;19998;-64
2024/04/13 08:34:05;;;;;;;1999.90;999.90;;;;;;;19.94;76.12;102424.53;11358291;26;20095;-64
2024/04/13 08:39:11;;;;;;;1999.90;999.90;;;;;;;20.45;76.05;102418.22;11357909;26;20006;-64
2024/04/13 08:44:14;;;;;;;1999.90;999.90;;;;;;;20.40;76.73;102405.25;11356291;26;20074;-64
2024/04/13 08:49:21;;;;;;;1999.90;999.90;;;;;;;20.56;74.28;102389.00;11357870;26;20070;-64
2024/04/13 08:54:24;;;;;;;1999.90;999.90;;;;;;;19.84;77.25;102389.81;11356054;26;19997;-64
2024/04/13 08:59:27;;;;;;;1999.90;999.90;;;;;;;20.12;74.34;102377.19;11357059;26;20478;-65
2024/04/13 09:04:32;;;;;;;1999.90;999.90;;;;;;;20.80;73.29;102381.03;11356835;26;20352;-64
2024/04/13 09:09:35;;;;;;;1999.90;999.90;;;;;;;20.53;74.00;102373.28;11362201;26;20008;-65
2024/04/13 09:14:37;;;;;;;1999.90;999.90;;;;;;;20.62;72.83;102367.25;11364588;26;19998;-64
2024/04/13 09:19:40;;;;;;;1999.90;999.90;;;;;;;21.25;72.97;102353.59;11362785;26;20002;-65
2024/04/13 09:24:44;;;;;;;1999.90;999.90;;;;;;;21.37;71.62;102346.47;11364517;26;19998;-64
2024/04/13 09:29:47;;;;;;;1999.90;999.90;;;;;;;22.45;71.86;102349.31;11364094;26;20360;-64
2024/04/13 09:34:49;;;;;;;1999.90;999.90;;;;;;;22.15;70.29;102347.34;11362666;26;20001;-64
2024/04/13 09:40:01;;;;;;;1999.90;999.90;;;;;;;21.97;68.80;102331.91;11364292;26;20009;-64
2024/04/13 09:45:07;;;;;;;1999.90;999.90;;;;;;;23.44;67.95;102335.59;11363788;26;20163;-64
2024/04/13 09:50:10;;;;;;;1999.90;999.90;;;;;;;24.06;64.99;102323.78;11361696;26;20034;-64
2024/04/13 09:55:12;;;;;;;1999.90;999.90;;;;;;;24.29;64.95;102304.75;11363414;26;19998;-65
2024/04/13 10:00:16;;;;;;;1999.90;999.90;;;;;;;24.53;62.08;102290.06;11363278;26;20468;-65
2024/04/13 10:05:19;;;;;;;1999.90;999.90;;;;;;;25.20;60.21;102281.00;11361342;26;19998;-65
2024/04/13 10:10:22;;;;;;;1999.90;999.90;;;;;;;24.33;60.48;102286.59;11363254;26;20002;-64
2024/04/13 10:15:25;;;;;;;1999.90;999.90;;;;;;;25.56;59.31;102274.91;11360977;26;20330;-65
2024/04/13 10:20:28;;;;;;;1999.90;999.90;;;;;;;25.00;59.75;102271.38;11359935;26;20026;-65
2024/04/13 10:25:31;;;;;;;1999.90;999.90;;;;;;;26.24;57.88;102263.66;11361151;26;20005;-64
2024/04/13 10:30:52;;;;;;;1999.90;999.90;;;;;;;26.11;56.79;102261.38;11362407;26;19998;-64
2024/04/13 10:36:05;;;;;;;1999.90;999.90;;;;;;;26.54;55.42;102245.38;11360674;26;20457;-65
2024/04/13 10:41:28;;;;;;;1999.90;999.90;;;;;;;27.17;53.63;102241.53;11360530;26;20006;-64
2024/04/13 10:46:34;;;;;;;1999.90;999.90;;;;;;;26.87;52.06;102224.94;11361965;26;19998;-66
2024/04/13 10:51:40;;;;;;;1999.90;999.90;;;;;;;26.65;53.54;102221.00;11361889;26;20012;-65
2024/04/13 10:56:44;;;;;;;1999.90;999.90;;;;;;;24.94;52.18;102213.03;11361650;26;19998;-64
2024/04/13 11:01:47;;;;;;;1999.90;999.90;;;;;;;26.43;51.02;102205.41;11361417;26;20048;-65
2024/04/13 11:06:49;;;;;;;1999.90;999.90;;;;;;;24.83;53.14;102208.69;11359482;26;20534;-64
2024/04/13 11:11:52;;;;;;;1999.90;999.90;;;;;;;25.73;53.26;102206.19;11359272;26;20063;-64
2024/04/13 11:16:54;;;;;;;1999.90;999.90;;;;;;;26.04;53.14;102203.97;11361504;26;20013;-65
2024/04/13 11:21:58;;;;;;;1999.90;999.90;;;;;;;26.78;51.43;102174.03;11360698;26;20009;-65
2024/04/13 11:27:01;;;;;;;1999.90;999.90;;;;;;;26.23;52.25;102181.44;11360936;26;19998;-65
2024/04/13 11:32:03;;;;;;;1999.90;999.90;;;;;;;27.52;52.38;102182.28;11358489;26;19998;-65
2024/04/13 11:37:06;;;;;;;1999.90;999.90;;;;;;;27.33;49.12;102161.94;11359988;26;20009;-65
2024/04/13 11:42:10;;;;;;;1999.90;999.90;;;;;;;27.82;49.14;102145.81;11358397;26;20034;-65
2024/04/13 11:47:13;;;;;;;1999.90;999.90;;;;;;;28.15;46.79;102129.66;11359595;26;20021;-65
2024/04/13 11:52:17;;;;;;;1999.90;999.90;;;;;;;28.07;46.91;102125.09;11358211;26;20002;-65
2024/04/13 11:57:20;;;;;;;1999.90;999.90;;;;;;;28.59;47.16;102107.63;11358017;26;20038;-64
2024/04/13 12:02:23;;;;;;;1999.90;999.90;;;;;;;29.85;44.50;102093.94;11359411;26;20006;-65
2024/04/13 12:07:25;;;;;;;1999.90;999.90;;;;;;;28.94;46.93;102081.16;11359479;26;20078;-64
2024/04/13 12:12:27;;;;;;;1999.90;999.90;;;;;;;31.07;42.76;102061.81;11359216;26;19998;-65
2024/04/13 12:17:30;;;;;;;1999.90;999.90;;;;;;;30.47;43.54;102073.81;11358769;26;20071;-65
2024/04/13 12:22:33;;;;;;;1999.90;999.90;;;;;;;30.02;43.89;102061.16;11358438;26;20075;-65
2024/04/13 12:27:35;;;;;;;1999.90;999.90;;;;;;;29.74;43.55;102069.03;11358749;26;19998;-65
2024/04/13 12:32:38;;;;;;;1999.90;999.90;;;;;;;29.51;44.74;102069.09;11358516;26;19998;-65
2024/04/13 12:37:43;;;;;;;1999.90;999.90;;;;;;;30.87;40.84;102053.47;11356554;26;20402;-65
2024/04/13 12:42:46;;;;;;;1999.90;999.90;;;;;;;29.81;42.83;102053.81;11360393;26;20013;-65
2024/04/13 12:47:48;;;;;;;1999.90;999.90;;;;;;;29.87;44.55;102063.03;11363793;26;20076;-65
2024/04/13 12:52:51;;;;;;;1999.90;999.90;;;;;;;30.46;43.76;102048.66;11365317;26;20406;-65
2024/04/13 12:57:54;;;;;;;1999.90;999.90;;;;;;;30.43;42.30;102030.13;11365103;26;20002;-65
2024/04/13 13:02:56;;;;;;;1999.90;999.90;;;;;;;29.87;41.78;102006.34;11365083;26;20013;-64
2024/04/13 13:07:59;;;;;;;1999.90;999.90;;;;;;;29.68;44.50;102009.56;11364793;26;20006;-65
2024/04/13 13:13:01;;;;;;;1999.90;999.90;;;;;;;29.63;43.23;101997.47;11362976;26;20368;-64
2024/04/13 13:18:05;;;;;;;1999.90;999.90;;;;;;;29.99;42.59;101983.25;11365009;26;20009;-65
2024/04/13 13:23:07;;;;;;;1999.90;999.90;;;;;;;29.06;43.25;101989.91;11364262;26;20009;-65
2024/04/13 13:28:10;;;;;;;1999.90;999.90;;;;;;;28.30;45.33;101987.88;11362819;26;19998;-65
2024/04/13 13:33:12;;;;;;;1999.90;999.90;;;;;;;29.48;42.38;101960.72;11364174;26;20046;-65
2024/04/13 13:38:15;;;;;;;1999.90;999.90;;;;;;;29.80;42.44;101960.34;11362665;26;20044;-65
2024/04/13 13:43:19;;;;;;;1999.90;999.90;;;;;;;30.47;42.12;101968.44;11362328;26;20379;-65
2024/04/13 13:48:21;;;;;;;1999.90;999.90;;;;;;;30.29;42.41;101952.63;11363618;26;20010;-65
2024/04/13 13:53:24;;;;;;;1999.90;999.90;;;;;;;30.25;41.12;101940.56;11360518;26;20076;-65
2024/04/13 13:58:26;;;;;;;1999.90;999.90;;;;;;;29.79;41.75;101939.81;11362294;26;20009;-65
2024/04/13 14:03:29;;;;;;;1999.90;999.90;;;;;;;29.35;42.54;101924.41;11363071;26;20330;-65
2024/04/13 14:08:32;;;;;;;1999.90;999.90;;;;;;;31.06;41.67;101916.78;11361782;26;20006;-65
2024/04/13 14:13:34;;;;;;;1999.90;999.90;;;;;;;29.78;42.41;101921.94;11361277;26;20013;-65
2024/04/13 14:18:37;;;;;;;1999.90;999.90;;;;;;;28.50;41.62;101901.25;11363673;26;20368;-65
2024/04/13 14:23:39;;;;;;;1999.90;999.90;;;;;;;28.58;45.19;101898.53;11362531;26;20006;-65
2024/04/13 14:28:42;;;;;;;1999.90;999.90;;;;;;;28.87;43.56;101895.06;11362740;26;19998;-65
2024/04/13 14:33:44;;;;;;;1999.90;999.90;;;;;;;28.25;43.56;101885.25;11360753;26;20013;-65
2024/04/13 14:38:47;;;;;;;1999.90;999.90;;;;;;;28.53;42.92;101888.25;11362345;26;20326;-65
2024/04/13 14:43:51;;;;;;;1999.90;999.90;;;;;;;29.41;41.47;101853.56;11362275;26;20006;-65
2024/04/13 14:48:54;;;;;;;1999.90;999.90;;;;;;;28.39;42.56;101858.56;11361865;26;19998;-65
2024/04/13 14:53:56;;;;;;;1999.90;999.90;;;;;;;27.73;42.80;101861.66;11361905;26;20009;-65
2024/04/13 14:58:59;;;;;;;1999.90;999.90;;;;;;;28.56;43.69;101845.84;11361616;26;19998;-65
2024/04/13 15:04:01;;;;;;;1999.90;999.90;;;;;;;29.56;43.70;101842.75;11361425;26;19998;-65
2024/04/13 15:09:04;;;;;;;1999.90;999.90;;;;;;;28.36;43.09;101830.13;11361035;26;20360;-65
2024/04/13 15:14:07;;;;;;;1999.90;999.90;;;;;;;28.23;47.55;101836.16;11360956;26;19997;-65
2024/04/13 15:19:09;;;;;;;1999.90;999.90;;;;;;;28.03;47.00;101830.41;11361059;26;20445;-65
2024/04/13 15:24:12;;;;;;;1999.90;999.90;;;;;;;27.79;45.82;101817.91;11360722;26;20074;-65
2024/04/13 15:29:14;;;;;;;1999.90;999.90;;;;;;;28.37;43.81;101799.50;11361004;26;20361;-65
2024/04/13 15:34:17;;;;;;;1999.90;999.90;;;;;;;28.46;44.81;101805.66;11360601;26;19998;-65
2024/04/13 15:39:20;;;;;;;1999.90;999.90;;;;;;;27.63;44.02;101797.31;11360452;26;20006;-64
2024/04/13 15:44:23;;;;;;;1999.90;999.90;;;;;;;27.49;44.61;101793.53;11360432;26;19998;-65
2024/04/13 15:49:25;;;;;;;1999.90;999.90;;;;;;;27.80;42.76;101787.28;11359856;26;20030;-65
2024/04/13 15:54:28;;;;;;;1999.90;999.90;;;;;;;28.08;45.50;101782.25;11359845;26;20354;-65
2024/04/13 15:59:30;;;;;;;1999.90;999.90;;;;;;;27.38;44.57;101791.22;11359570;26;20445;-66
2024/04/13 16:04:33;;;;;;;1999.90;999.90;;;;;;;27.34;44.29;101777.28;11357608;26;20012;-65
2024/04/13 16:09:36;;;;;;;1999.90;999.90;;;;;;;26.77;44.26;101772.91;11359444;26;19998;-65
2024/04/13 16:14:40;;;;;;;1999.90;999.90;;;;;;;26.21;49.01;101804.16;11359216;26;19999;-65
2024/04/13 16:19:42;;;;;;;1999.90;999.90;;;;;;;26.11;47.00;101778.31;11364038;26;20002;-65
2024/04/13 16:24:45;;;;;;;1999.90;999.90;;;;;;;26.54;45.66;101759.34;11365641;26;19999;-65
2024/04/13 16:29:51;;;;;;;1999.90;999.90;;;;;;;26.24;46.36;101766.25;11365867;26;20010;-65
2024/04/13 16:34:54;;;;;;;1999.90;999.90;;;;;;;26.01;47.35;101766.91;11365431;26;20034;-65
2024/04/13 16:39:56;;;;;;;1999.90;999.90;;;;;;;25.31;47.24;101775.25;11365768;26;20350;-65
2024/04/13 16:44:59;;;;;;;1999.90;999.90;;;;;;;24.59;48.32;101767.47;11365523;26;19994;-65
2024/04/13 16:50:01;;;;;;;1999.90;999.90;;;;;;;24.62;49.40;101767.16;11365545;26;20041;-65
2024/04/13 16:55:04;;;;;;;1999.90;999.90;;;;;;;24.10;50.95;101760.69;11365086;26;20014;-65
2024/04/13 17:00:07;;;;;;;1999.90;999.90;;;;;;;24.22;51.71;101753.28;11365198;26;19998;-65
2024/04/13 17:05:09;;;;;;;1999.90;999.90;;;;;;;23.98;51.25;101753.91;11364974;26;20330;-65
2024/04/13 17:10:12;;;;;;;1999.90;999.90;;;;;;;24.07;50.98;101750.31;11372378;20;20029;-68
2024/04/13 17:15:14;;;;;;;1999.90;999.90;;;;;;;23.74;52.26;101723.25;11332958;26;20007;-67
2024/04/13 17:20:17;;;;;;;1999.90;999.90;;;;;;;23.90;53.14;101727.09;11365224;26;20009;-68
2024/04/13 17:25:19;;;;;;;1999.90;999.90;;;;;;;23.69;52.89;101708.66;11364072;26;19998;-68
2024/04/13 17:30:22;;;;;;;1999.90;999.90;;;;;;;23.23;53.94;101710.50;11364329;26;19998;-67
2024/04/13 17:35:24;;;;;;;1999.90;999.90;;;;;;;23.01;55.68;101704.50;11363844;26;20074;-68
2024/04/13 17:40:27;;;;;;;1999.90;999.90;;;;;;;23.13;55.48;101708.72;11363994;26;20106;-68
2024/04/13 17:45:29;;;;;;;1999.90;999.90;;;;;;;22.91;55.87;101701.88;11363563;26;20384;-68
2024/04/13 17:50:32;;;;;;;1999.90;999.90;;;;;;;23.10;55.11;101694.78;11363377;26;20013;-68
2024/04/13 17:55:34;;;;;;;1999.90;999.90;;;;;;;22.93;56.54;101694.59;11363642;26;19998;-68
2024/04/13 18:00:38;;;;;;;1999.90;999.90;;;;;;;22.70;57.16;101694.09;11363648;26;20345;-67
2024/04/13 18:05:41;;;;;;;1999.90;999.90;;;;;;;22.39;57.46;101696.16;11363300;26;20009;-67
2024/04/13 18:10:43;;;;;;;1999.90;999.90;;;;;;;22.34;57.44;101699.28;11362932;26;19998;-67
2024/04/13 18:15:46;;;;;;;1999.90;999.90;;;;;;;22.35;57.10;101692.94;11362757;26;20030;-67
2024/04/13 18:20:48;;;;;;;1999.90;999.90;;;;;;;22.22;58.21;101701.19;11362636;26;19999;-67
2024/04/13 18:25:51;;;;;;;1999.90;999.90;;;;;;;22.04;57.67;101693.09;11362676;26;20018;-67
2024/04/13 18:30:53;;;;;;;1999.90;999.90;;;;;;;21.87;57.33;101686.66;11362489;26;19998;-67
2024/04/13 18:35:56;;;;;;;1999.90;999.90;;;;;;;21.57;58.22;101684.97;11362238;26;19998;-67
2024/04/13 18:40:58;;;;;;;1999.90;999.90;;;;;;;21.38;61.36;101695.53;11361281;26;20012;-67
2024/04/13 18:46:01;;;;;;;1999.90;999.90;;;;;;;21.40;59.55;101697.09;11362183;26;20334;-67
2024/04/13 18:51:04;;;;;;;1999.90;999.90;;;;;;;21.38;60.70;101704.34;11362357;26;20349;-67
2024/04/13 18:56:06;;;;;;;1999.90;999.90;;;;;;;20.97;61.64;101699.06;11361844;26;20008;-67
2024/04/13 19:01:12;;;;;;;1999.90;999.90;;;;;;;20.68;63.67;101706.06;11361944;26;19998;-67
2024/04/13 19:06:15;;;;;;;1999.90;999.90;;;;;;;20.01;66.72;101702.81;11361777;26;20009;-67
2024/04/13 19:11:17;;;;;;;1999.90;999.90;;;;;;;20.00;67.99;101707.25;11361075;26;20459;-67
2024/04/13 19:16:20;;;;;;;1999.90;999.90;;;;;;;19.18;71.66;101709.50;11361062;26;19998;-67
2024/04/13 19:21:22;;;;;;;1999.90;999.90;;;;;;;19.28;71.76;101718.41;11359120;26;19994;-67
2024/04/13 19:26:25;;;;;;;1999.90;999.90;;;;;;;18.86;74.63;101720.84;11360912;26;20070;-67
2024/04/13 19:31:28;;;;;;;1999.90;999.90;;;;;;;18.96;74.04;101720.97;11360898;26;20452;-67
2024/04/13 19:36:30;;;;;;;1999.90;999.90;;;;;;;18.78;75.72;101720.56;11360439;26;20070;-67
2024/04/13 19:41:33;;;;;;;1999.90;999.90;;;;;;;18.72;77.01;101722.72;11360249;26;20002;-67
2024/04/13 19:46:35;;;;;;;1999.90;999.90;;;;;;;18.63;78.21;101726.09;11360003;26;20008;-67
2024/04/13 19:51:38;;;;;;;1999.90;999.90;;;;;;;18.22;80.64;101718.63;11359179;26;20012;-67
2024/04/13 19:56:41;;;;;;;1999.90;999.90;;;;;;;18.05;83.42;101709.31;11359671;26;20078;-67
2024/04/13 20:01:44;;;;;;;1999.90;999.90;;;;;;;17.92;84.74;101710.22;11357758;26;20449;-67
2024/04/13 20:06:47;;;;;;;1999.90;999.90;;;;;;;17.79;86.29;101718.19;11359269;26;20075;-67
2024/04/13 20:11:49;;;;;;;1999.90;999.90;;;;;;;17.62;88.89;101718.59;11359729;26;20525;-67
2024/04/13 20:22:13;;;;;;;1999.90;999.90;;;;;;;17.55;92.44;101733.22;11358199;26;19998;-67
2024/04/13 20:27:15;;;;;;;1999.90;999.90;;;;;;;18.05;89.20;101730.50;11358452;26;20009;-67
2024/04/13 20:32:22;;;;;;;1999.90;999.90;;;;;;;18.35;87.42;101740.59;11358450;26;19998;-67
2024/04/13 20:37:25;;;;;;;1999.90;999.90;;;;;;;18.31;87.50;101734.69;11358156;26;20445;-67
2024/04/13 20:42:27;;;;;;;1999.90;999.90;;;;;;;18.28;86.65;101732.28;11358438;26;20015;-67
2024/04/13 20:47:30;;;;;;;1999.90;999.90;;;;;;;17.98;89.69;101735.41;11355986;26;20061;-67
2024/04/13 20:52:33;;;;;;;1999.90;999.90;;;;;;;18.17;87.57;101737.53;11357618;26;19998;-67
2024/04/13 20:57:55;;;;;;;1999.90;999.90;;;;;;;18.14;87.20;101730.66;11357469;26;20029;-67
2024/04/13 21:02:59;;;;;;;1999.90;999.90;;;;;;;18.06;88.40;101741.00;11358436;26;20002;-67
2024/04/13 21:08:02;;;;;;;1999.90;999.90;;;;;;;17.97;88.62;101739.00;11363772;26;19998;-67
2024/04/13 21:13:05;;;;;;;1999.90;999.90;;;;;;;17.89;87.73;101741.41;11364971;26;19998;-67
2024/04/13 21:18:07;;;;;;;1999.90;999.90;;;;;;;17.71;89.18;101754.97;11364612;26;20021;-67
2024/04/13 21:23:10;;;;;;;1999.90;999.90;;;;;;;17.61;90.47;101738.91;11364525;26;19998;-66
2024/04/13 21:28:13;;;;;;;1999.90;999.90;;;;;;;17.75;88.74;101745.88;11364388;26;20034;-67
2024/04/13 21:33:15;;;;;;;1999.90;999.90;;;;;;;17.72;88.70;101746.09;11363923;26;19998;-66
2024/04/13 21:38:18;;;;;;;1999.90;999.90;;;;;;;17.54;87.86;101753.56;11364100;26;20074;-67
2024/04/13 21:43:21;;;;;;;1999.90;999.90;;;;;;;17.52;87.05;101760.75;11363966;26;20008;-67
2024/04/13 21:48:23;;;;;;;1999.90;999.90;;;;;;;17.28;84.04;101747.47;11363761;26;20013;-66
2024/04/13 21:53:26;;;;;;;1999.90;999.90;;;;;;;17.20;77.39;101748.00;11363564;26;20480;-67
2024/04/13 21:58:28;;;;;;;1999.90;999.90;;;;;;;17.08;72.65;101759.47;11361949;26;20441;-67